Time;durP1;ratioP1;P1;durP2;ratioP2;P2;SDS_P1;SDS_P2;PMS_P1;PMS_P2;Temp;Humidity;BMP_temperature;BMP_pressure;BME280_temperature;BME280_humidity;BME280_pressure;Samples;Min_cycle;Max_cycle;Signal;HPM_P1;HPM_P2
2023/04/24 00:00:12;;;;;;;8.13;2.80;;;;;;;11.92;73.17;99948.63;4972071;28;20907;-77
2023/04/24 00:02:38;;;;;;;8.18;3.47;;;;;;;11.89;73.48;99940.75;4996269;28;20549;-78
2023/04/24 00:05:05;;;;;;;8.93;3.80;;;;;;;11.88;73.36;99945.19;4958942;28;20411;-78
2023/04/24 00:07:31;;;;;;;9.45;3.80;;;;;;;11.88;73.07;99952.19;4958917;28;20050;-78
2023/04/24 00:09:57;;;;;;;9.47;3.63;;;;;;;11.90;73.09;99950.41;4958779;28;20114;-78
2023/04/24 00:12:22;;;;;;;8.00;3.50;;;;;;;11.90;72.95;99947.78;4958821;28;20023;-78
2023/04/24 00:14:47;;;;;;;8.90;3.80;;;;;;;11.90;73.21;99953.06;4958501;28;20027;-78
2023/04/24 00:17:13;;;;;;;8.27;3.33;;;;;;;11.90;73.31;99950.41;4971227;28;20502;-78
2023/04/24 00:19:38;;;;;;;13.77;4.55;;;;;;;11.90;72.98;99948.66;4977255;28;20059;-78
2023/04/24 00:22:04;;;;;;;11.50;4.70;;;;;;;11.91;73.62;99952.16;4977932;28;20038;-78
2023/04/24 00:24:29;;;;;;;11.77;4.60;;;;;;;11.91;73.23;99944.25;4977897;28;20034;-78
2023/04/24 00:26:55;;;;;;;10.38;3.95;;;;;;;11.92;73.20;99938.06;4977786;28;20078;-78
2023/04/24 00:29:20;;;;;;;8.87;4.13;;;;;;;11.90;73.35;99945.13;4977709;28;20030;-78
2023/04/24 00:31:45;;;;;;;10.00;3.90;;;;;;;11.88;73.08;99937.25;4972971;28;20023;-78
2023/04/24 00:34:12;;;;;;;10.00;4.17;;;;;;;11.89;73.39;99943.38;4971811;28;20102;-78
2023/04/24 00:36:37;;;;;;;10.20;3.95;;;;;;;11.86;73.70;99939.06;4977805;28;20110;-78
2023/04/24 00:39:03;;;;;;;9.07;3.43;;;;;;;11.89;73.28;99946.03;4977790;28;20074;-78
2023/04/24 00:41:29;;;;;;;7.95;3.10;;;;;;;11.89;73.59;99943.38;4977667;28;20018;-78
2023/04/24 00:43:54;;;;;;;10.00;3.63;;;;;;;11.89;73.50;99946.03;4977686;28;20553;-78
2023/04/24 00:46:20;;;;;;;7.82;3.35;;;;;;;11.91;73.38;99941.59;4977344;28;20027;-78
2023/04/24 00:48:46;;;;;;;7.20;2.97;;;;;;;11.91;73.54;99944.25;4977694;28;20027;-78
2023/04/24 00:51:12;;;;;;;8.82;3.25;;;;;;;11.91;73.37;99952.16;4977739;28;20026;-78
2023/04/24 00:53:37;;;;;;;8.73;3.17;;;;;;;11.89;73.63;99946.03;4977835;28;20039;-78
2023/04/24 00:56:04;;;;;;;7.67;2.90;;;;;;;11.87;73.34;99947.81;4977435;28;20111;-75
2023/04/24 00:58:31;;;;;;;9.10;3.15;;;;;;;11.85;73.51;99941.69;4977314;28;20054;-76
2023/04/24 01:00:57;;;;;;;6.95;2.70;;;;;;;11.81;73.30;99947.91;4970080;28;20027;-76
2023/04/24 01:03:26;;;;;;;6.45;2.67;;;;;;;11.77;73.26;99947.06;4968731;28;20023;-77
2023/04/24 01:05:52;;;;;;;6.47;2.87;;;;;;;11.74;73.26;99939.22;4977599;28;20023;-76
2023/04/24 01:08:19;;;;;;;7.28;3.10;;;;;;;11.73;73.28;99943.63;4977400;28;20030;-76
2023/04/24 01:10:47;;;;;;;8.43;3.08;;;;;;;11.72;73.43;99941.88;4977422;28;20039;-76
2023/04/24 01:13:13;;;;;;;7.25;3.40;;;;;;;11.73;73.22;99946.28;4977459;28;20114;-76
2023/04/24 01:15:38;;;;;;;7.20;3.20;;;;;;;11.73;73.29;99942.75;4976899;28;20050;-76
2023/04/24 01:18:04;;;;;;;8.43;2.97;;;;;;;11.72;73.19;99941.88;4977208;28;20368;-76
2023/04/24 01:20:30;;;;;;;6.63;2.63;;;;;;;11.71;73.48;99932.22;4977257;28;20050;-76
2023/04/24 01:22:56;;;;;;;8.23;2.70;;;;;;;11.70;73.20;99930.50;4977328;28;20034;-76
2023/04/24 01:25:22;;;;;;;5.60;2.40;;;;;;;11.68;73.38;99936.66;4977181;28;20274;-76
2023/04/24 01:27:47;;;;;;;6.57;2.40;;;;;;;11.67;73.51;99927.88;4977250;28;20035;-76
2023/04/24 01:30:14;;;;;;;7.73;2.70;;;;;;;11.66;73.68;99936.69;4977023;28;20038;-76
2023/04/24 01:32:40;;;;;;;10.45;2.17;;;;;;;11.65;74.01;99929.66;4975511;28;20431;-76
2023/04/24 01:35:07;;;;;;;5.70;2.10;;;;;;;11.62;73.87;99924.44;4980942;28;20041;-76
2023/04/24 01:37:33;;;;;;;7.97;1.70;;;;;;;11.62;73.96;99929.72;4980799;28;20069;-76
2023/04/24 01:39:58;;;;;;;6.67;1.80;;;;;;;11.65;74.12;99934.06;4980718;28;20023;-76
2023/04/24 01:42:24;;;;;;;6.60;1.70;;;;;;;11.70;74.34;99938.41;4980693;28;20299;-76
2023/04/24 01:44:49;;;;;;;9.97;1.70;;;;;;;11.74;74.01;99940.09;4980398;28;20029;-76
2023/04/24 01:47:15;;;;;;;7.47;1.70;;;;;;;11.74;73.93;99940.09;4980711;28;20069;-76
2023/04/24 01:49:40;;;;;;;6.67;1.60;;;;;;;11.76;74.15;99942.69;4980618;28;20483;-76
2023/04/24 01:52:06;;;;;;;6.80;1.70;;;;;;;11.76;74.29;99943.59;4980529;28;20399;-76
2023/04/24 01:54:31;;;;;;;7.07;1.45;;;;;;;11.77;74.21;99940.06;4978763;28;20022;-76
2023/04/24 01:56:57;;;;;;;8.27;1.60;;;;;;;11.76;73.98;99933.03;4980254;28;20038;-76
2023/04/24 01:59:23;;;;;;;7.13;1.57;;;;;;;11.74;74.17;99936.56;4980429;28;20109;-76
2023/04/24 02:01:48;;;;;;;6.05;1.48;;;;;;;11.72;74.16;99944.53;4965909;28;20487;-76
2023/04/24 02:04:15;;;;;;;6.67;1.53;;;;;;;11.71;74.15;99942.78;4980364;28;20105;-76
2023/04/24 02:06:40;;;;;;;8.07;1.40;;;;;;;11.70;73.77;99942.78;4980285;28;20071;-76
2023/04/24 02:09:06;;;;;;;12.13;2.07;;;;;;;11.69;73.86;99946.31;4980369;28;20031;-76
2023/04/24 02:11:31;;;;;;;5.10;1.30;;;;;;;11.67;73.92;99942.84;4980174;28;20023;-76
2023/04/24 02:13:57;;;;;;;6.63;1.37;;;;;;;11.65;74.31;99939.34;4979692;28;20038;-76
2023/04/24 02:16:22;;;;;;;8.00;1.50;;;;;;;11.62;74.03;99945.53;4979742;28;20041;-76
2023/04/24 02:18:48;;;;;;;5.80;1.50;;;;;;;11.60;74.29;99948.22;4980055;28;20321;-76
2023/04/24 02:21:13;;;;;;;6.50;1.60;;;;;;;11.58;74.33;99943.84;4979950;28;20027;-76
2023/04/24 02:23:38;;;;;;;7.90;1.63;;;;;;;11.54;74.01;99939.50;4980316;28;20031;-76
2023/04/24 02:26:04;;;;;;;7.87;1.70;;;;;;;11.52;74.04;99946.56;4979930;28;20027;-76
2023/04/24 02:28:29;;;;;;;7.45;1.88;;;;;;;11.49;74.23;99945.72;4979349;28;20023;-76
2023/04/24 02:30:55;;;;;;;6.90;1.47;;;;;;;11.47;74.11;99942.22;4974024;28;20027;-76
2023/04/24 02:33:20;;;;;;;5.23;1.40;;;;;;;11.44;74.51;99942.22;4979698;28;20027;-76
2023/04/24 02:35:45;;;;;;;7.13;1.27;;;;;;;11.42;74.12;99948.44;4979737;28;20030;-76
2023/04/24 02:38:11;;;;;;;7.40;1.60;;;;;;;11.39;74.53;99946.69;4979762;28;20027;-76
2023/04/24 02:40:36;;;;;;;8.33;1.30;;;;;;;11.36;74.16;99949.38;4979576;28;20297;-76
2023/04/24 02:43:02;;;;;;;8.07;1.67;;;;;;;11.33;74.25;99946.78;4979357;28;20102;-76
2023/04/24 02:45:27;;;;;;;7.63;1.40;;;;;;;11.32;74.38;99947.69;4979230;28;20412;-76
2023/04/24 02:47:53;;;;;;;8.13;1.57;;;;;;;11.32;74.45;99952.94;4979536;28;20027;-76
2023/04/24 02:50:18;;;;;;;6.57;1.40;;;;;;;11.30;74.15;99942.41;4979467;28;20117;-76
2023/04/24 02:52:43;;;;;;;10.37;1.70;;;;;;;11.31;74.08;99948.56;4979279;28;20031;-76
2023/04/24 02:55:09;;;;;;;6.37;1.40;;;;;;;11.32;74.25;99947.69;4979393;28;20030;-76
2023/04/24 02:57:35;;;;;;;8.48;1.40;;;;;;;11.30;74.50;99952.97;4979278;28;20027;-76
2023/04/24 03:00:00;;;;;;;6.33;1.27;;;;;;;11.29;74.29;99947.72;4978914;28;20027;-76
2023/04/24 03:02:25;;;;;;;8.27;1.60;;;;;;;11.28;74.73;99949.47;4960561;28;20035;-76
2023/04/24 03:04:51;;;;;;;7.63;1.50;;;;;;;11.25;74.98;99959.19;4959994;28;20381;-75
2023/04/24 03:07:16;;;;;;;10.43;1.50;;;;;;;11.24;74.98;99954.81;4959762;28;20031;-75
2023/04/24 03:09:42;;;;;;;7.10;1.20;;;;;;;11.25;74.69;99961.84;4974267;28;20031;-75
2023/04/24 03:12:07;;;;;;;7.20;1.30;;;;;;;11.24;74.74;99954.81;4979216;28;20037;-75
2023/04/24 03:14:32;;;;;;;8.38;1.17;;;;;;;11.25;74.79;99944.25;4978847;28;20018;-75
2023/04/24 03:16:58;;;;;;;6.37;1.00;;;;;;;11.26;74.55;99947.75;4978567;28;20576;-75
2023/04/24 03:19:24;;;;;;;9.17;1.50;;;;;;;11.24;75.04;99953.03;4979051;28;20077;-75
2023/04/24 03:21:50;;;;;;;9.68;1.42;;;;;;;11.24;74.79;99947.75;4978913;28;20033;-75
2023/04/24 03:24:15;;;;;;;7.73;1.30;;;;;;;11.22;74.88;99946.06;4978733;28;20038;-75
2023/04/24 03:26:41;;;;;;;9.82;1.67;;;;;;;11.23;74.63;99955.72;4976204;28;20023;-75
2023/04/24 03:29:06;;;;;;;6.97;1.37;;;;;;;11.22;74.98;99961.88;4978771;28;20074;-75
2023/04/24 03:31:31;;;;;;;8.27;1.33;;;;;;;11.22;74.87;99956.59;4972861;28;20479;-75
2023/04/24 03:33:57;;;;;;;6.90;1.37;;;;;;;11.17;74.91;99948.75;4978852;28;20546;-75
2023/04/24 03:36:22;;;;;;;8.05;1.50;;;;;;;11.12;74.97;99946.16;4974027;28;20515;-75
2023/04/24 03:38:47;;;;;;;8.67;1.27;;;;;;;11.08;75.36;99940.91;4970905;28;20038;-75
2023/04/24 03:41:13;;;;;;;9.00;1.40;;;;;;;11.06;75.37;99940.94;4978476;28;20479;-75
2023/04/24 03:43:39;;;;;;;7.63;1.20;;;;;;;11.05;75.34;99941.84;4977231;28;20331;-75
2023/04/24 03:46:04;;;;;;;12.23;1.27;;;;;;;11.08;75.37;99947.06;4978293;28;20029;-75
2023/04/24 03:48:30;;;;;;;8.97;1.40;;;;;;;11.10;75.27;99947.06;4977366;28;20454;-75
2023/04/24 03:50:55;;;;;;;9.20;1.60;;;;;;;11.12;75.20;99954.06;4978392;28;20081;-75
2023/04/24 03:53:21;;;;;;;8.77;1.20;;;;;;;11.15;75.42;99951.38;4976565;28;20109;-75
2023/04/24 03:55:47;;;;;;;10.37;1.40;;;;;;;11.17;75.32;99954.88;4978334;28;20360;-75
2023/04/24 03:58:14;;;;;;;9.10;1.30;;;;;;;11.18;75.37;99956.59;4978309;28;20274;-75
2023/04/24 04:00:40;;;;;;;9.75;1.23;;;;;;;11.19;75.55;99958.34;4972233;28;20030;-76
2023/04/24 04:03:06;;;;;;;6.28;1.30;;;;;;;11.19;75.46;99960.13;4959231;28;20031;-75
2023/04/24 04:05:31;;;;;;;7.07;1.13;;;;;;;11.18;75.66;99959.25;4983193;28;20033;-76
2023/04/24 04:07:57;;;;;;;11.83;1.43;;;;;;;11.19;75.71;99960.13;4978490;28;20026;-75
2023/04/24 04:10:22;;;;;;;11.37;1.40;;;;;;;11.20;75.37;99960.09;4976983;28;20305;-75
2023/04/24 04:12:47;;;;;;;10.57;1.53;;;;;;;11.22;75.33;99961.88;4978290;28;20038;-75
2023/04/24 04:15:13;;;;;;;7.83;1.63;;;;;;;11.22;75.72;99956.59;4972020;28;20078;-76
2023/04/24 04:17:38;;;;;;;11.02;1.70;;;;;;;11.23;75.75;99953.06;4975164;28;20475;-76
2023/04/24 04:20:09;;;;;;;7.30;1.60;;;;;;;11.25;75.80;99948.66;4973418;28;20043;-75
2023/04/24 04:22:35;;;;;;;9.98;1.30;;;;;;;11.28;76.09;99945.97;4970524;28;20030;-75
2023/04/24 04:25:01;;;;;;;9.13;1.75;;;;;;;11.29;75.83;99948.56;4978030;28;20093;-75
2023/04/24 04:27:26;;;;;;;11.70;1.37;;;;;;;11.30;76.13;99952.97;4976729;28;20029;-75
2023/04/24 04:29:52;;;;;;;7.97;1.20;;;;;;;11.30;76.35;99944.19;4977940;28;20022;-75
2023/04/24 04:32:18;;;;;;;8.30;1.50;;;;;;;11.32;76.13;99956.44;4972451;28;20109;-75
2023/04/24 04:34:45;;;;;;;7.53;1.50;;;;;;;11.36;76.60;99974.88;4973485;28;20099;-76
2023/04/24 04:37:12;;;;;;;7.22;1.02;;;;;;;11.38;76.13;99967.81;4970071;28;20046;-75
2023/04/24 04:39:37;;;;;;;6.97;1.30;;;;;;;11.39;76.74;99970.44;4976065;28;20166;-75
2023/04/24 04:42:03;;;;;;;8.73;1.50;;;;;;;11.40;76.86;99972.16;4977873;28;20062;-75
2023/04/24 04:44:30;;;;;;;6.45;1.23;;;;;;;11.41;76.57;99981.81;4976383;28;20031;-76
2023/04/24 04:46:56;;;;;;;8.20;1.47;;;;;;;11.41;77.20;99973.91;4977852;28;20023;-76
2023/04/24 04:49:23;;;;;;;9.35;1.30;;;;;;;11.43;77.02;99974.75;4977848;28;20031;-76
2023/04/24 04:51:50;;;;;;;9.20;1.75;;;;;;;11.44;76.79;99981.78;4977970;28;20042;-75
2023/04/24 04:54:16;;;;;;;11.32;1.48;;;;;;;11.44;76.93;99973.88;4977693;28;20037;-76
2023/04/24 04:56:41;;;;;;;13.37;1.40;;;;;;;11.45;76.31;99973.00;4977860;28;20030;-76
2023/04/24 04:59:07;;;;;;;8.63;1.20;;;;;;;11.45;76.58;99978.28;4977437;28;20031;-75
2023/04/24 05:01:32;;;;;;;7.23;1.30;;;;;;;11.45;76.87;99980.03;4975302;28;20344;-75
2023/04/24 05:03:57;;;;;;;9.80;1.33;;;;;;;11.43;77.20;99985.31;4977816;28;20059;-75
2023/04/24 05:06:23;;;;;;;10.57;1.53;;;;;;;11.44;76.73;99981.78;4981486;28;20395;-76
2023/04/24 05:08:48;;;;;;;9.50;1.67;;;;;;;11.45;77.18;99980.94;4977098;28;20033;-75
2023/04/24 05:11:14;;;;;;;9.63;1.60;;;;;;;11.45;77.10;99988.84;4973108;28;20027;-76
2023/04/24 05:13:40;;;;;;;9.50;1.70;;;;;;;11.46;77.00;99990.56;4980205;28;20557;-75
2023/04/24 05:16:05;;;;;;;9.17;1.53;;;;;;;11.47;76.89;99994.97;4981232;28;20320;-75
2023/04/24 05:18:31;;;;;;;5.43;1.33;;;;;;;11.48;77.08;99987.91;4981348;28;20023;-75
2023/04/24 05:20:56;;;;;;;9.83;1.50;;;;;;;11.50;76.82;100001.94;4981014;28;20062;-75
2023/04/24 05:23:21;;;;;;;8.95;1.38;;;;;;;11.52;76.85;100001.94;4979926;28;20463;-75
2023/04/24 05:25:47;;;;;;;10.77;1.70;;;;;;;11.54;76.93;99998.38;4979895;28;20557;-75
2023/04/24 05:28:12;;;;;;;6.73;1.30;;;;;;;11.57;77.17;100008.88;4981009;28;20049;-75
2023/04/24 05:30:38;;;;;;;10.60;1.80;;;;;;;11.59;77.49;100014.16;4977190;28;20026;-75
2023/04/24 05:33:03;;;;;;;11.82;1.80;;;;;;;11.60;77.33;100003.59;4979058;28;20058;-75
2023/04/24 05:35:29;;;;;;;10.23;1.73;;;;;;;11.63;77.15;100007.94;4980997;28;20042;-75
2023/04/24 05:37:54;;;;;;;8.03;1.73;;;;;;;11.66;76.90;100007.88;4981079;28;20507;-75
2023/04/24 05:40:20;;;;;;;11.97;1.90;;;;;;;11.68;76.96;100013.16;4980933;28;20023;-76
2023/04/24 05:42:45;;;;;;;14.53;1.90;;;;;;;11.68;77.01;100018.44;4980947;28;20262;-75
2023/04/24 05:45:16;;;;;;;11.77;2.07;;;;;;;11.73;76.99;100016.59;4980606;28;20503;-76
2023/04/24 05:47:41;;;;;;;12.50;1.83;;;;;;;11.74;77.13;100018.34;4983338;28;20497;-76
2023/04/24 05:50:07;;;;;;;8.93;1.90;;;;;;;11.77;76.77;100019.19;4993087;28;20026;-76
2023/04/24 05:52:32;;;;;;;11.32;2.30;;;;;;;11.85;76.93;100018.22;4969175;28;20037;-76
2023/04/24 05:54:58;;;;;;;8.20;1.60;;;;;;;11.88;76.83;100021.69;4978478;28;20085;-76
2023/04/24 05:57:23;;;;;;;11.03;1.80;;;;;;;11.90;77.08;100017.25;4969414;28;20086;-76
2023/04/24 05:59:49;;;;;;;9.70;1.60;;;;;;;11.95;77.00;100032.16;4980338;28;20023;-76
2023/04/24 06:02:14;;;;;;;8.88;1.77;;;;;;;11.98;77.28;100034.75;4963473;28;20066;-76
2023/04/24 06:04:39;;;;;;;12.73;1.60;;;;;;;11.99;76.83;100029.47;4961316;28;20503;-76
2023/04/24 06:07:06;;;;;;;20.20;2.40;;;;;;;12.01;76.88;100032.09;4961279;28;20015;-76
2023/04/24 06:09:31;;;;;;;10.10;2.03;;;;;;;12.04;77.05;100032.94;4971141;28;20026;-74
2023/04/24 06:11:58;;;;;;;9.53;1.90;;;;;;;12.05;76.94;100039.97;4969736;28;20093;-72
2023/04/24 06:14:23;;;;;;;15.95;3.85;;;;;;;12.08;76.89;100044.34;4980106;28;20034;-73
2023/04/24 06:16:49;;;;;;;9.63;2.57;;;;;;;12.13;76.93;100054.81;4981585;28;20403;-72
2023/04/24 06:19:14;;;;;;;8.83;1.67;;;;;;;12.22;76.49;100054.69;4971944;28;20078;-74
2023/04/24 06:21:39;;;;;;;7.60;1.75;;;;;;;12.31;76.40;100051.06;4977748;28;20031;-74
2023/04/24 06:24:05;;;;;;;10.73;1.83;;;;;;;12.38;76.08;100059.72;4981573;28;20026;-75
2023/04/24 06:26:30;;;;;;;10.20;1.80;;;;;;;12.44;76.35;100057.03;4986499;28;20390;-74
2023/04/24 06:28:56;;;;;;;8.10;1.60;;;;;;;12.50;76.05;100062.22;4976544;28;20088;-74
2023/04/24 06:31:22;;;;;;;10.73;1.60;;;;;;;12.55;76.14;100065.63;4974294;28;20262;-74
2023/04/24 06:33:48;;;;;;;10.97;1.63;;;;;;;12.60;76.21;100061.16;4976355;28;20313;-73
2023/04/24 06:36:14;;;;;;;10.73;1.85;;;;;;;12.64;76.13;100067.28;4977579;28;20030;-76
2023/04/24 06:38:40;;;;;;;10.90;1.70;;;;;;;12.66;76.26;100068.13;4979320;28;20430;-76
2023/04/24 06:41:05;;;;;;;9.17;1.53;;;;;;;12.69;75.95;100068.06;4975523;28;20030;-75
2023/04/24 06:43:34;;;;;;;11.97;1.90;;;;;;;12.69;76.25;100076.00;4970860;28;20023;-76
2023/04/24 06:46:00;;;;;;;10.98;2.08;;;;;;;12.73;76.09;100074.19;4974540;28;20178;-76
2023/04/24 06:48:26;;;;;;;9.98;1.65;;;;;;;12.74;76.49;100075.94;4970728;28;20027;-77
2023/04/24 06:50:52;;;;;;;11.30;1.90;;;;;;;12.73;76.15;100079.47;4979623;28;20027;-76
2023/04/24 06:53:18;;;;;;;14.35;1.80;;;;;;;12.74;76.06;100083.84;4979596;28;20545;-76
2023/04/24 06:55:45;;;;;;;15.10;2.20;;;;;;;12.75;76.10;100088.25;4979449;28;20027;-76
2023/04/24 06:58:11;;;;;;;10.70;1.80;;;;;;;12.79;76.46;100089.94;4979449;28;20027;-76
2023/04/24 07:00:37;;;;;;;10.53;2.20;;;;;;;12.79;76.40;100092.56;4975053;28;20038;-76
2023/04/24 07:03:05;;;;;;;8.40;1.55;;;;;;;12.80;76.35;100090.81;4960085;28;20030;-76
2023/04/24 07:05:30;;;;;;;12.20;1.63;;;;;;;12.81;76.43;100087.28;4960100;28;20023;-76
2023/04/24 07:07:58;;;;;;;5.97;1.60;;;;;;;12.84;76.01;100103.94;4960158;28;20062;-76
2023/04/24 07:10:24;;;;;;;9.55;2.10;;;;;;;12.90;76.25;100101.22;4972662;28;20093;-76
2023/04/24 07:12:49;;;;;;;11.15;1.92;;;;;;;12.95;76.20;100094.97;4971017;28;20499;-76
2023/04/24 07:15:16;;;;;;;8.83;1.77;;;;;;;12.98;76.01;100101.06;4978822;28;20762;-76
2023/04/24 07:17:44;;;;;;;9.32;2.28;;;;;;;13.03;75.84;100095.72;4979243;28;20026;-77
2023/04/24 07:20:10;;;;;;;11.45;1.92;;;;;;;13.07;76.02;100097.41;4979182;28;20054;-76
2023/04/24 07:22:37;;;;;;;8.73;1.80;;;;;;;13.10;75.79;100099.97;4979247;28;20076;-76
2023/04/24 07:25:02;;;;;;;13.60;2.35;;;;;;;13.15;75.57;100098.16;4979078;28;20030;-77
2023/04/24 07:27:28;;;;;;;17.57;2.37;;;;;;;13.17;75.29;100099.00;4977685;28;20038;-76
2023/04/24 07:29:53;;;;;;;18.90;3.60;;;;;;;13.30;75.35;100101.41;4978704;28;20034;-76
2023/04/24 07:32:18;;;;;;;9.77;1.73;;;;;;;13.40;75.01;100097.72;4973293;28;20050;-77
2023/04/24 07:34:44;;;;;;;11.40;1.63;;;;;;;13.45;74.88;100097.63;4978837;28;20106;-76
2023/04/24 07:37:10;;;;;;;9.53;1.70;;;;;;;13.44;74.49;100090.59;4978945;28;20435;-76
2023/04/24 07:39:35;;;;;;;8.67;1.50;;;;;;;13.36;74.79;100101.28;4978806;28;20035;-77
2023/04/24 07:42:01;;;;;;;6.18;0.93;;;;;;;13.27;74.69;100107.66;4978862;28;20035;-77
2023/04/24 07:44:26;;;;;;;9.47;0.93;;;;;;;13.23;74.67;100107.72;4978552;28;20508;-77
2023/04/24 07:46:52;;;;;;;6.80;0.80;;;;;;;13.20;74.24;100108.63;4978620;28;20098;-77
2023/04/24 07:49:17;;;;;;;4.33;0.60;;;;;;;13.23;74.30;100113.00;4978346;28;20039;-76
2023/04/24 07:51:43;;;;;;;5.67;0.67;;;;;;;13.26;74.03;100103.25;4978794;28;20026;-76
2023/04/24 07:54:08;;;;;;;4.77;0.53;;;;;;;13.36;73.81;100101.28;4978914;28;20022;-78
2023/04/24 07:56:34;;;;;;;4.55;0.60;;;;;;;13.45;73.54;100095.00;4978401;28;20031;-77
2023/04/24 07:59:01;;;;;;;5.77;0.90;;;;;;;13.86;72.65;100087.13;4978248;28;20041;-77
2023/04/24 08:01:26;;;;;;;6.97;0.70;;;;;;;14.28;71.76;100070.38;4967966;28;20396;-77
2023/04/24 08:03:52;;;;;;;9.65;1.23;;;;;;;14.50;70.94;100082.22;4959236;28;20035;-77
2023/04/24 08:06:17;;;;;;;6.10;0.87;;;;;;;14.69;70.37;100076.47;4965074;28;20027;-77
2023/04/24 08:08:42;;;;;;;9.47;1.10;;;;;;;14.81;70.00;100085.94;4974693;28;20034;-77
2023/04/24 08:11:08;;;;;;;9.17;0.93;;;;;;;14.83;69.56;100084.16;4978465;28;20038;-77
2023/04/24 08:13:33;;;;;;;8.90;0.90;;;;;;;14.90;69.79;100080.44;4976992;28;20503;-77
2023/04/24 08:15:59;;;;;;;8.13;1.20;;;;;;;14.87;69.89;100080.50;4978216;28;20101;-77
2023/04/24 08:18:24;;;;;;;5.80;0.80;;;;;;;14.79;70.07;100085.09;4978182;28;20262;-77
2023/04/24 08:20:50;;;;;;;7.53;0.80;;;;;;;14.65;69.91;100085.41;4978059;28;20054;-77
2023/04/24 08:23:15;;;;;;;6.50;0.80;;;;;;;14.56;70.24;100091.78;4978169;28;20491;-77
2023/04/24 08:25:41;;;;;;;7.53;0.80;;;;;;;14.47;70.51;100092.91;4978231;28;20794;-77
2023/04/24 08:28:09;;;;;;;6.47;0.80;;;;;;;14.45;70.88;100080.59;4978004;28;20026;-78
2023/04/24 08:30:34;;;;;;;7.80;0.80;;;;;;;14.47;70.61;100081.41;4974762;28;20023;-78
2023/04/24 08:33:00;;;;;;;5.67;0.90;;;;;;;14.56;70.03;100081.19;4975489;28;20480;-78
2023/04/24 08:35:25;;;;;;;8.17;0.87;;;;;;;14.60;69.95;100071.41;4978153;28;20054;-77
2023/04/24 08:37:53;;;;;;;7.13;0.80;;;;;;;14.66;69.62;100073.03;4977945;28;20031;-77
2023/04/24 08:40:22;;;;;;;7.35;0.95;;;;;;;14.72;69.46;100072.91;4976447;28;20039;-76
2023/04/24 08:42:47;;;;;;;6.17;0.90;;;;;;;14.80;68.95;100076.25;4973319;28;20093;-77
2023/04/24 08:45:13;;;;;;;4.90;0.70;;;;;;;14.88;68.77;100076.06;4969210;28;20114;-77
2023/04/24 08:47:40;;;;;;;8.23;1.00;;;;;;;14.90;68.51;100072.47;4977642;28;20117;-76
2023/04/24 08:50:07;;;;;;;9.88;0.80;;;;;;;14.86;68.65;100078.78;4978006;28;20030;-76
2023/04/24 08:52:34;;;;;;;5.75;0.80;;;;;;;14.80;68.90;100075.38;4977783;28;20447;-76
2023/04/24 08:55:02;;;;;;;8.52;0.90;;;;;;;14.70;69.04;100083.50;4977955;28;20056;-76
2023/04/24 08:57:29;;;;;;;7.87;0.90;;;;;;;14.71;69.01;100084.44;4977769;28;20042;-76
2023/04/24 08:59:55;;;;;;;4.88;0.77;;;;;;;14.73;68.71;100074.66;4977432;28;20118;-76
2023/04/24 09:02:23;;;;;;;4.45;0.80;;;;;;;14.82;68.85;100087.69;4957987;28;20492;-76
2023/04/24 09:04:49;;;;;;;5.50;0.70;;;;;;;14.85;68.21;100077.03;4970788;28;20110;-77
2023/04/24 09:07:17;;;;;;;4.13;0.60;;;;;;;14.91;68.39;100082.16;4976329;28;20051;-77
2023/04/24 09:09:43;;;;;;;5.37;0.90;;;;;;;14.95;67.93;100076.78;4973423;28;20045;-76
2023/04/24 09:12:09;;;;;;;5.68;0.60;;;;;;;14.99;67.70;100073.13;4977274;28;20081;-77
2023/04/24 09:14:38;;;;;;;3.33;0.50;;;;;;;15.05;67.36;100073.84;4977319;28;20117;-77
2023/04/24 09:17:03;;;;;;;8.43;0.80;;;;;;;15.16;66.70;100070.94;4977777;28;20496;-77
2023/04/24 09:19:29;;;;;;;5.70;0.70;;;;;;;15.29;66.18;100070.59;4977661;28;20117;-77
2023/04/24 09:21:54;;;;;;;4.37;0.50;;;;;;;15.41;66.66;100064.97;4977548;28;20038;-77
2023/04/24 09:24:24;;;;;;;7.22;1.05;;;;;;;15.56;66.25;100073.44;4977533;28;20537;-77
2023/04/24 09:27:01;;;;;;;5.90;0.60;;;;;;;15.60;65.62;100075.06;4964708;28;20372;-77
2023/04/24 09:29:27;;;;;;;6.43;0.73;;;;;;;15.53;65.68;100074.38;4977302;28;20026;-77
2023/04/24 09:31:52;;;;;;;7.22;0.60;;;;;;;15.51;65.66;100065.59;4971721;28;20031;-77
2023/04/24 09:34:23;;;;;;;6.00;0.60;;;;;;;15.50;65.16;100067.34;4977458;28;20036;-77
2023/04/24 09:36:49;;;;;;;5.05;0.50;;;;;;;15.49;65.65;100073.56;4977553;28;20023;-77
2023/04/24 09:39:16;;;;;;;6.43;0.60;;;;;;;15.43;65.67;100063.13;4977472;28;20066;-77
2023/04/24 09:41:49;;;;;;;6.20;0.50;;;;;;;15.40;65.60;100062.34;4977365;28;20082;-77
2023/04/24 09:44:16;;;;;;;4.03;0.55;;;;;;;15.38;65.78;100062.41;4977198;28;20491;-77
2023/04/24 09:46:42;;;;;;;7.03;0.80;;;;;;;15.50;66.00;100070.00;4972797;28;20027;-77
2023/04/24 09:49:22;;;;;;;5.47;1.05;;;;;;;15.60;64.51;100067.97;4974033;28;20113;-77
2023/04/24 09:51:47;;;;;;;5.63;0.70;;;;;;;15.66;64.29;100069.59;4978954;28;20049;-77
2023/04/24 09:54:19;;;;;;;4.70;0.57;;;;;;;15.63;64.85;100067.88;4980727;28;20109;-77
2023/04/24 09:56:47;;;;;;;6.28;0.80;;;;;;;15.60;64.46;100072.41;4980764;28;20101;-77
2023/04/24 09:59:14;;;;;;;5.05;0.60;;;;;;;15.56;64.64;100073.44;4979180;28;20041;-77
2023/04/24 10:01:44;;;;;;;5.78;0.70;;;;;;;15.52;64.81;100077.06;4967041;28;20480;-77
2023/04/24 10:04:18;;;;;;;4.00;0.87;;;;;;;15.44;64.42;100072.84;4980545;28;20122;-77
2023/04/24 10:06:44;;;;;;;6.90;0.70;;;;;;;15.44;64.83;100075.50;4980637;28;20046;-77
2023/04/24 10:09:11;;;;;;;4.00;0.55;;;;;;;15.49;64.55;100073.56;4980745;28;20030;-77
2023/04/24 10:11:37;;;;;;;4.22;0.60;;;;;;;15.59;64.62;100076.00;4980592;28;20030;-77
2023/04/24 10:14:03;;;;;;;6.97;0.80;;;;;;;15.71;64.50;100072.97;4980414;28;20475;-77
2023/04/24 10:16:30;;;;;;;3.55;0.60;;;;;;;15.85;64.49;100069.06;4980271;28;20058;-77
2023/04/24 10:18:59;;;;;;;3.72;1.17;;;;;;;15.90;62.97;100068.03;4980266;28;20492;-77
2023/04/24 10:21:26;;;;;;;4.15;0.68;;;;;;;15.90;62.91;100067.16;4980401;28;20490;-78
2023/04/24 10:23:53;;;;;;;6.43;0.70;;;;;;;15.91;62.85;100069.78;4980485;28;20022;-77
2023/04/24 10:26:19;;;;;;;4.00;0.70;;;;;;;16.04;62.48;100057.03;4977805;28;20488;-77
2023/04/24 10:28:46;;;;;;;3.92;0.47;;;;;;;16.25;62.31;100057.25;4979894;28;20031;-77
2023/04/24 10:31:13;;;;;;;6.35;0.82;;;;;;;16.45;62.15;100054.00;4974055;28;20027;-77
2023/04/24 10:33:41;;;;;;;5.22;0.60;;;;;;;16.67;61.38;100041.78;4980057;28;20045;-77
2023/04/24 10:36:08;;;;;;;5.53;0.57;;;;;;;16.90;61.24;100049.00;4978695;28;20074;-77
2023/04/24 10:38:35;;;;;;;5.07;0.70;;;;;;;17.18;60.56;100043.63;4979814;28;20041;-78
2023/04/24 10:41:09;;;;;;;4.32;0.57;;;;;;;17.38;60.44;100034.06;4978551;28;20037;-77
2023/04/24 10:43:35;;;;;;;4.50;0.65;;;;;;;17.58;59.87;100037.78;4975339;28;20514;-77
2023/04/24 10:46:02;;;;;;;5.00;0.80;;;;;;;17.58;59.76;100030.66;4974947;28;20102;-78
2023/04/24 10:48:28;;;;;;;7.40;0.80;;;;;;;17.54;59.13;100036.16;4970938;28;20631;-77
2023/04/24 10:50:53;;;;;;;2.80;0.50;;;;;;;17.40;59.25;100026.03;4975315;28;20031;-77
2023/04/24 10:53:23;;;;;;;6.20;0.87;;;;;;;17.28;59.93;100035.31;4970788;28;20030;-77
2023/04/24 10:55:52;;;;;;;4.90;0.57;;;;;;;17.19;60.40;100039.19;4975076;28;20066;-77
2023/04/24 10:58:35;;;;;;;5.15;0.60;;;;;;;17.15;60.21;100027.75;4971518;28;20131;-77
2023/04/24 11:01:00;;;;;;;5.13;1.10;;;;;;;17.14;60.54;100038.47;4975107;28;20067;-78
2023/04/24 11:03:28;;;;;;;6.15;1.13;;;;;;;17.13;60.64;100042.91;4980339;28;20438;-78
2023/04/24 11:06:07;;;;;;;4.57;0.60;;;;;;;17.09;60.09;100035.97;4979810;28;20039;-77
2023/04/24 11:08:45;;;;;;;4.80;0.60;;;;;;;17.12;60.45;100049.16;4979062;28;20034;-73
2023/04/24 11:11:16;;;;;;;4.85;0.65;;;;;;;17.27;60.41;100036.25;4979675;28;20030;-77
2023/04/24 11:13:54;;;;;;;4.80;0.60;;;;;;;17.38;59.58;100036.72;4979220;28;20495;-78
2023/04/24 11:16:21;;;;;;;6.15;0.80;;;;;;;17.57;59.02;100033.38;4979018;28;20030;-79
2023/04/24 11:18:54;;;;;;;4.57;0.82;;;;;;;17.62;58.76;100031.41;4974759;28;20507;-80
2023/04/24 11:21:20;;;;;;;4.83;0.50;;;;;;;17.66;58.32;100033.03;4974216;28;20023;-77